sensor_id;sensor_type;location;lat;lon;timestamp;temperature;humidity
23149;DHT22;11743;51.228;22.498;2023-04-25T00:00:03;10.70;99.90
23149;DHT22;11743;51.228;22.498;2023-04-25T00:00:28;10.70;99.90
23149;DHT22;11743;51.228;22.498;2023-04-25T00:00:50;10.60;99.90
23149;DHT22;11743;51.228;22.498;2023-04-25T00:01:13;10.60;99.90
23149;DHT22;11743;51.228;22.498;2023-04-25T00:01:36;10.60;99.90
23149;DHT22;11743;51.228;22.498;2023-04-25T00:01:59;10.60;99.90
23149;DHT22;11743;51.228;22.498;2023-04-25T00:02:21;10.60;99.90
23149;DHT22;11743;51.228;22.498;2023-04-25T00:02:43;10.60;99.90
23149;DHT22;11743;51.228;22.498;2023-04-25T00:03:05;10.50;99.90
23149;DHT22;11743;51.228;22.498;2023-04-25T00:03:27;10.50;99.90
23149;DHT22;11743;51.228;22.498;2023-04-25T00:03:51;10.50;99.90
23149;DHT22;11743;51.228;22.498;2023-04-25T00:04:14;10.50;99.90
23149;DHT22;11743;51.228;22.498;2023-04-25T00:04:36;10.50;99.90
23149;DHT22;11743;51.228;22.498;2023-04-25T00:05:01;10.40;99.90
23149;DHT22;11743;51.228;22.498;2023-04-25T00:05:24;10.40;99.90
23149;DHT22;11743;51.228;22.498;2023-04-25T00:05:46;10.40;99.90
23149;DHT22;11743;51.228;22.498;2023-04-25T00:06:08;10.40;99.90
23149;DHT22;11743;51.228;22.498;2023-04-25T00:06:30;10.40;99.90
23149;DHT22;11743;51.228;22.498;2023-04-25T00:06:56;10.40;99.90
23149;DHT22;11743;51.228;22.498;2023-04-25T00:07:19;10.30;99.90
23149;DHT22;11743;51.228;22.498;2023-04-25T00:07:41;10.30;99.90
23149;DHT22;11743;51.228;22.498;2023-04-25T00:08:07;10.30;99.90
23149;DHT22;11743;51.228;22.498;2023-04-25T00:08:29;10.20;99.90
23149;DHT22;11743;51.228;22.498;2023-04-25T00:08:52;10.20;99.90
23149;DHT22;11743;51.228;22.498;2023-04-25T00:09:14;10.20;99.90
23149;DHT22;11743;51.228;22.498;2023-04-25T00:09:36;10.20;99.90
23149;DHT22;11743;51.228;22.498;2023-04-25T00:09:58;10.20;99.90
23149;DHT22;11743;51.228;22.498;2023-04-25T00:10:20;10.20;99.90
23149;DHT22;11743;51.228;22.498;2023-04-25T00:10:42;10.10;99.90
23149;DHT22;11743;51.228;22.498;2023-04-25T00:11:04;10.10;99.90
23149;DHT22;11743;51.228;22.498;2023-04-25T00:11:26;10.20;99.90
23149;DHT22;11743;51.228;22.498;2023-04-25T00:11:48;10.10;99.90
23149;DHT22;11743;51.228;22.498;2023-04-25T00:12:09;10.10;99.90
23149;DHT22;11743;51.228;22.498;2023-04-25T00:12:31;10.10;99.90
23149;DHT22;11743;51.228;22.498;2023-04-25T00:12:55;10.10;99.90
23149;DHT22;11743;51.228;22.498;2023-04-25T00:13:16;10.10;99.90
23149;DHT22;11743;51.228;22.498;2023-04-25T00:13:39;10.00;99.90
23149;DHT22;11743;51.228;22.498;2023-04-25T00:14:04;10.00;99.90
23149;DHT22;11743;51.228;22.498;2023-04-25T00:14:25;10.00;99.90
23149;DHT22;11743;51.228;22.498;2023-04-25T00:14:49;10.00;99.90
23149;DHT22;11743;51.228;22.498;2023-04-25T00:15:14;10.00;99.90
23149;DHT22;11743;51.228;22.498;2023-04-25T00:15:36;10.00;99.90
23149;DHT22;11743;51.228;22.498;2023-04-25T00:15:59;10.00;99.90
23149;DHT22;11743;51.228;22.498;2023-04-25T00:16:21;10.00;99.90
23149;DHT22;11743;51.228;22.498;2023-04-25T00:16:45;9.90;99.90
23149;DHT22;11743;51.228;22.498;2023-04-25T00:17:07;9.90;99.90
23149;DHT22;11743;51.228;22.498;2023-04-25T00:17:29;9.90;99.90
23149;DHT22;11743;51.228;22.498;2023-04-25T00:17:51;9.90;99.90
23149;DHT22;11743;51.228;22.498;2023-04-25T00:18:15;9.90;99.90
23149;DHT22;11743;51.228;22.498;2023-04-25T00:18:36;9.90;99.90
23149;DHT22;11743;51.228;22.498;2023-04-25T00:18:58;9.90;99.90
23149;DHT22;11743;51.228;22.498;2023-04-25T00:19:20;9.90;99.90
23149;DHT22;11743;51.228;22.498;2023-04-25T00:19:42;9.90;99.90
23149;DHT22;11743;51.228;22.498;2023-04-25T00:20:06;9.90;99.90
23149;DHT22;11743;51.228;22.498;2023-04-25T00:20:31;9.90;99.90
23149;DHT22;11743;51.228;22.498;2023-04-25T00:20:52;9.90;99.90
23149;DHT22;11743;51.228;22.498;2023-04-25T00:21:14;9.90;99.90
23149;DHT22;11743;51.228;22.498;2023-04-25T00:21:39;9.90;99.90
23149;DHT22;11743;51.228;22.498;2023-04-25T00:22:02;9.90;99.90
23149;DHT22;11743;51.228;22.498;2023-04-25T00:22:24;9.90;99.90
23149;DHT22;11743;51.228;22.498;2023-04-25T00:22:45;9.90;99.90
23149;DHT22;11743;51.228;22.498;2023-04-25T00:23:07;9.90;99.90
23149;DHT22;11743;51.228;22.498;2023-04-25T00:23:29;9.90;99.90
23149;DHT22;11743;51.228;22.498;2023-04-25T00:23:52;9.90;99.90
23149;DHT22;11743;51.228;22.498;2023-04-25T00:24:15;9.90;99.90
23149;DHT22;11743;51.228;22.498;2023-04-25T00:24:36;9.90;99.90
23149;DHT22;11743;51.228;22.498;2023-04-25T00:24:58;9.90;99.90
23149;DHT22;11743;51.228;22.498;2023-04-25T00:25:21;9.90;99.90
23149;DHT22;11743;51.228;22.498;2023-04-25T00:25:44;9.90;99.90
23149;DHT22;11743;51.228;22.498;2023-04-25T00:26:06;9.90;99.90
23149;DHT22;11743;51.228;22.498;2023-04-25T00:26:28;9.90;99.90
23149;DHT22;11743;51.228;22.498;2023-04-25T00:26:50;9.90;99.90
23149;DHT22;11743;51.228;22.498;2023-04-25T00:27:11;9.90;99.90
23149;DHT22;11743;51.228;22.498;2023-04-25T00:27:33;9.90;99.90
23149;DHT22;11743;51.228;22.498;2023-04-25T00:27:55;9.90;99.90
23149;DHT22;11743;51.228;22.498;2023-04-25T00:28:17;9.90;99.90
23149;DHT22;11743;51.228;22.498;2023-04-25T00:28:39;9.90;99.90
23149;DHT22;11743;51.228;22.498;2023-04-25T00:29:02;9.90;99.90
23149;DHT22;11743;51.228;22.498;2023-04-25T00:29:25;9.90;99.90
23149;DHT22;11743;51.228;22.498;2023-04-25T00:29:47;9.90;99.90
23149;DHT22;11743;51.228;22.498;2023-04-25T00:30:09;9.90;99.90
23149;DHT22;11743;51.228;22.498;2023-04-25T00:30:31;9.90;99.90
23149;DHT22;11743;51.228;22.498;2023-04-25T00:30:53;9.90;99.90
23149;DHT22;11743;51.228;22.498;2023-04-25T00:31:15;9.90;99.90
23149;DHT22;11743;51.228;22.498;2023-04-25T00:31:37;9.90;99.90
23149;DHT22;11743;51.228;22.498;2023-04-25T00:32:22;9.90;99.90
23149;DHT22;11743;51.228;22.498;2023-04-25T00:32:43;10.00;99.90
23149;DHT22;11743;51.228;22.498;2023-04-25T00:33:06;9.90;99.90
23149;DHT22;11743;51.228;22.498;2023-04-25T00:33:27;9.90;99.90
23149;DHT22;11743;51.228;22.498;2023-04-25T00:33:49;9.90;99.90
23149;DHT22;11743;51.228;22.498;2023-04-25T00:34:11;10.00;99.90
23149;DHT22;11743;51.228;22.498;2023-04-25T00:34:33;10.00;99.90
23149;DHT22;11743;51.228;22.498;2023-04-25T00:34:55;10.00;99.90
23149;DHT22;11743;51.228;22.498;2023-04-25T00:35:19;10.00;99.90
23149;DHT22;11743;51.228;22.498;2023-04-25T00:35:42;10.00;99.90
23149;DHT22;11743;51.228;22.498;2023-04-25T00:36:03;10.00;99.90
23149;DHT22;11743;51.228;22.498;2023-04-25T00:36:26;10.00;99.90
23149;DHT22;11743;51.228;22.498;2023-04-25T00:36:49;10.00;99.90
23149;DHT22;11743;51.228;22.498;2023-04-25T00:37:11;10.00;99.90
23149;DHT22;11743;51.228;22.498;2023-04-25T00:37:34;10.00;99.90
23149;DHT22;11743;51.228;22.498;2023-04-25T00:37:56;10.10;99.90
23149;DHT22;11743;51.228;22.498;2023-04-25T00:38:18;10.10;99.90
23149;DHT22;11743;51.228;22.498;2023-04-25T00:38:40;10.10;99.90
23149;DHT22;11743;51.228;22.498;2023-04-25T00:39:01;10.10;99.90
23149;DHT22;11743;51.228;22.498;2023-04-25T00:39:24;10.10;99.90
23149;DHT22;11743;51.228;22.498;2023-04-25T00:39:46;10.10;99.90
23149;DHT22;11743;51.228;22.498;2023-04-25T00:40:08;10.10;99.90
23149;DHT22;11743;51.228;22.498;2023-04-25T00:40:30;10.10;99.90
23149;DHT22;11743;51.228;22.498;2023-04-25T00:40:52;10.20;99.90
23149;DHT22;11743;51.228;22.498;2023-04-25T00:41:14;10.20;99.90
23149;DHT22;11743;51.228;22.498;2023-04-25T00:41:37;10.20;99.90
23149;DHT22;11743;51.228;22.498;2023-04-25T00:42:00;10.20;99.90
23149;DHT22;11743;51.228;22.498;2023-04-25T00:42:22;10.20;99.90
23149;DHT22;11743;51.228;22.498;2023-04-25T00:42:44;10.20;99.90
23149;DHT22;11743;51.228;22.498;2023-04-25T00:43:06;10.20;99.90
23149;DHT22;11743;51.228;22.498;2023-04-25T00:43:30;10.20;99.90
23149;DHT22;11743;51.228;22.498;2023-04-25T00:43:54;10.20;99.90
23149;DHT22;11743;51.228;22.498;2023-04-25T00:44:16;10.30;99.90
23149;DHT22;11743;51.228;22.498;2023-04-25T00:44:38;10.30;99.90
23149;DHT22;11743;51.228;22.498;2023-04-25T00:45:00;10.30;99.90
23149;DHT22;11743;51.228;22.498;2023-04-25T00:45:27;10.30;99.90
23149;DHT22;11743;51.228;22.498;2023-04-25T00:45:50;10.30;99.90
23149;DHT22;11743;51.228;22.498;2023-04-25T00:46:13;10.30;99.90
23149;DHT22;11743;51.228;22.498;2023-04-25T00:46:35;10.30;99.90
23149;DHT22;11743;51.228;22.498;2023-04-25T00:46:58;10.30;99.90
23149;DHT22;11743;51.228;22.498;2023-04-25T00:47:21;10.30;99.90
23149;DHT22;11743;51.228;22.498;2023-04-25T00:47:43;10.30;99.90
23149;DHT22;11743;51.228;22.498;2023-04-25T00:48:05;10.30;99.90
23149;DHT22;11743;51.228;22.498;2023-04-25T00:48:27;10.40;99.90
23149;DHT22;11743;51.228;22.498;2023-04-25T00:48:49;10.40;99.90
23149;DHT22;11743;51.228;22.498;2023-04-25T00:49:11;10.40;99.90
23149;DHT22;11743;51.228;22.498;2023-04-25T00:49:37;10.40;99.90
23149;DHT22;11743;51.228;22.498;2023-04-25T00:49:58;10.40;99.90
23149;DHT22;11743;51.228;22.498;2023-04-25T00:50:20;10.40;99.90
23149;DHT22;11743;51.228;22.498;2023-04-25T00:50:44;10.40;99.90
23149;DHT22;11743;51.228;22.498;2023-04-25T00:51:15;10.40;99.90
23149;DHT22;11743;51.228;22.498;2023-04-25T00:51:37;10.40;99.90
23149;DHT22;11743;51.228;22.498;2023-04-25T00:52:00;10.40;99.90
23149;DHT22;11743;51.228;22.498;2023-04-25T00:52:21;10.50;99.90
23149;DHT22;11743;51.228;22.498;2023-04-25T00:52:44;10.50;99.90
23149;DHT22;11743;51.228;22.498;2023-04-25T00:53:06;10.50;99.90
23149;DHT22;11743;51.228;22.498;2023-04-25T00:53:30;10.50;99.90
23149;DHT22;11743;51.228;22.498;2023-04-25T00:53:52;10.50;99.90
23149;DHT22;11743;51.228;22.498;2023-04-25T00:54:15;10.50;99.90
23149;DHT22;11743;51.228;22.498;2023-04-25T00:54:37;10.50;99.90
23149;DHT22;11743;51.228;22.498;2023-04-25T00:54:59;10.50;99.90
23149;DHT22;11743;51.228;22.498;2023-04-25T00:55:21;10.50;99.90
23149;DHT22;11743;51.228;22.498;2023-04-25T00:55:43;10.50;99.90
23149;DHT22;11743;51.228;22.498;2023-04-25T00:56:05;10.50;99.90
23149;DHT22;11743;51.228;22.498;2023-04-25T00:56:27;10.50;99.90
23149;DHT22;11743;51.228;22.498;2023-04-25T00:56:49;10.50;99.90
23149;DHT22;11743;51.228;22.498;2023-04-25T00:57:11;10.50;99.90
23149;DHT22;11743;51.228;22.498;2023-04-25T00:57:33;10.50;99.90
23149;DHT22;11743;51.228;22.498;2023-04-25T00:57:55;10.50;99.90
23149;DHT22;11743;51.228;22.498;2023-04-25T00:58:18;10.50;99.90
23149;DHT22;11743;51.228;22.498;2023-04-25T00:58:40;10.50;99.90
23149;DHT22;11743;51.228;22.498;2023-04-25T00:59:03;10.50;99.90
23149;DHT22;11743;51.228;22.498;2023-04-25T00:59:25;10.50;99.90
23149;DHT22;11743;51.228;22.498;2023-04-25T00:59:48;10.50;99.90
23149;DHT22;11743;51.228;22.498;2023-04-25T01:00:12;10.50;99.90
23149;DHT22;11743;51.228;22.498;2023-04-25T01:00:36;10.50;99.90
23149;DHT22;11743;51.228;22.498;2023-04-25T01:00:59;10.50;99.90
23149;DHT22;11743;51.228;22.498;2023-04-25T01:01:22;10.50;99.90
23149;DHT22;11743;51.228;22.498;2023-04-25T01:01:45;10.50;99.90
23149;DHT22;11743;51.228;22.498;2023-04-25T01:02:07;10.50;99.90
23149;DHT22;11743;51.228;22.498;2023-04-25T01:02:32;10.50;99.90
23149;DHT22;11743;51.228;22.498;2023-04-25T01:02:54;10.50;99.90
23149;DHT22;11743;51.228;22.498;2023-04-25T01:03:17;12.90;99.90
23149;DHT22;11743;51.228;22.498;2023-04-25T01:04:04;10.40;99.90
23149;DHT22;11743;51.228;22.498;2023-04-25T01:04:27;10.50;99.90
23149;DHT22;11743;51.228;22.498;2023-04-25T01:04:50;10.50;99.90
23149;DHT22;11743;51.228;22.498;2023-04-25T01:05:12;10.40;99.90
23149;DHT22;11743;51.228;22.498;2023-04-25T01:05:34;10.40;99.90
23149;DHT22;11743;51.228;22.498;2023-04-25T01:05:55;10.40;99.90
23149;DHT22;11743;51.228;22.498;2023-04-25T01:06:18;10.40;99.90
23149;DHT22;11743;51.228;22.498;2023-04-25T01:06:40;10.40;99.90
23149;DHT22;11743;51.228;22.498;2023-04-25T01:07:02;10.40;99.90
23149;DHT22;11743;51.228;22.498;2023-04-25T01:07:24;10.40;99.90
23149;DHT22;11743;51.228;22.498;2023-04-25T01:07:47;10.40;99.90
23149;DHT22;11743;51.228;22.498;2023-04-25T01:08:09;10.30;99.90
23149;DHT22;11743;51.228;22.498;2023-04-25T01:08:31;10.30;99.90
23149;DHT22;11743;51.228;22.498;2023-04-25T01:08:53;10.30;99.90
23149;DHT22;11743;51.228;22.498;2023-04-25T01:09:15;10.30;99.90
23149;DHT22;11743;51.228;22.498;2023-04-25T01:09:38;10.30;99.90
23149;DHT22;11743;51.228;22.498;2023-04-25T01:09:59;14.20;99.90
23149;DHT22;11743;51.228;22.498;2023-04-25T01:10:22;10.30;99.90
23149;DHT22;11743;51.228;22.498;2023-04-25T01:10:44;10.30;99.90
23149;DHT22;11743;51.228;22.498;2023-04-25T01:11:06;10.30;99.90
23149;DHT22;11743;51.228;22.498;2023-04-25T01:11:28;10.30;99.90
23149;DHT22;11743;51.228;22.498;2023-04-25T01:11:50;10.20;99.90
23149;DHT22;11743;51.228;22.498;2023-04-25T01:12:12;10.20;99.90
23149;DHT22;11743;51.228;22.498;2023-04-25T01:12:34;10.20;99.90
23149;DHT22;11743;51.228;22.498;2023-04-25T01:12:56;10.30;99.90
23149;DHT22;11743;51.228;22.498;2023-04-25T01:13:18;10.20;99.90
23149;DHT22;11743;51.228;22.498;2023-04-25T01:13:40;10.20;99.90
23149;DHT22;11743;51.228;22.498;2023-04-25T01:14:02;10.20;99.90
23149;DHT22;11743;51.228;22.498;2023-04-25T01:14:24;10.20;99.90
23149;DHT22;11743;51.228;22.498;2023-04-25T01:14:46;10.20;99.90
23149;DHT22;11743;51.228;22.498;2023-04-25T01:15:08;10.10;99.90
23149;DHT22;11743;51.228;22.498;2023-04-25T01:15:30;10.10;99.90
23149;DHT22;11743;51.228;22.498;2023-04-25T01:15:52;10.20;99.90
23149;DHT22;11743;51.228;22.498;2023-04-25T01:16:14;10.10;99.90
23149;DHT22;11743;51.228;22.498;2023-04-25T01:16:36;10.10;99.90
23149;DHT22;11743;51.228;22.498;2023-04-25T01:16:58;10.10;99.90
23149;DHT22;11743;51.228;22.498;2023-04-25T01:17:21;10.20;99.90
23149;DHT22;11743;51.228;22.498;2023-04-25T01:17:42;10.10;99.90
23149;DHT22;11743;51.228;22.498;2023-04-25T01:18:06;10.10;99.90
23149;DHT22;11743;51.228;22.498;2023-04-25T01:18:28;10.10;99.90
23149;DHT22;11743;51.228;22.498;2023-04-25T01:18:50;10.10;99.90
23149;DHT22;11743;51.228;22.498;2023-04-25T01:19:16;10.10;99.90
23149;DHT22;11743;51.228;22.498;2023-04-25T01:19:38;10.10;99.90
23149;DHT22;11743;51.228;22.498;2023-04-25T01:20:03;10.10;99.90
23149;DHT22;11743;51.228;22.498;2023-04-25T01:20:26;10.00;99.90
23149;DHT22;11743;51.228;22.498;2023-04-25T01:20:51;10.10;99.90
23149;DHT22;11743;51.228;22.498;2023-04-25T01:21:13;10.00;99.90
23149;DHT22;11743;51.228;22.498;2023-04-25T01:21:36;10.00;99.90
23149;DHT22;11743;51.228;22.498;2023-04-25T01:21:58;10.00;99.90
23149;DHT22;11743;51.228;22.498;2023-04-25T01:22:20;10.00;99.90
23149;DHT22;11743;51.228;22.498;2023-04-25T01:22:43;10.00;99.90
23149;DHT22;11743;51.228;22.498;2023-04-25T01:23:05;9.90;99.90
23149;DHT22;11743;51.228;22.498;2023-04-25T01:23:27;9.90;99.90
23149;DHT22;11743;51.228;22.498;2023-04-25T01:23:49;9.90;99.90
23149;DHT22;11743;51.228;22.498;2023-04-25T01:24:12;9.90;99.90
23149;DHT22;11743;51.228;22.498;2023-04-25T01:24:34;9.90;99.90
23149;DHT22;11743;51.228;22.498;2023-04-25T01:24:57;9.90;99.90
23149;DHT22;11743;51.228;22.498;2023-04-25T01:25:19;9.90;99.90
23149;DHT22;11743;51.228;22.498;2023-04-25T01:25:41;9.90;99.90
23149;DHT22;11743;51.228;22.498;2023-04-25T01:26:04;9.90;99.90
23149;DHT22;11743;51.228;22.498;2023-04-25T01:26:26;9.80;99.90
23149;DHT22;11743;51.228;22.498;2023-04-25T01:26:48;9.80;99.90
23149;DHT22;11743;51.228;22.498;2023-04-25T01:27:14;9.80;99.90
23149;DHT22;11743;51.228;22.498;2023-04-25T01:27:37;9.80;99.90
23149;DHT22;11743;51.228;22.498;2023-04-25T01:27:59;9.80;99.90
23149;DHT22;11743;51.228;22.498;2023-04-25T01:28:21;9.70;99.90
23149;DHT22;11743;51.228;22.498;2023-04-25T01:28:43;9.70;99.90
23149;DHT22;11743;51.228;22.498;2023-04-25T01:29:07;9.70;99.90
23149;DHT22;11743;51.228;22.498;2023-04-25T01:29:30;9.70;99.90
23149;DHT22;11743;51.228;22.498;2023-04-25T01:29:54;9.70;99.90
23149;DHT22;11743;51.228;22.498;2023-04-25T01:30:16;9.70;99.90
23149;DHT22;11743;51.228;22.498;2023-04-25T01:30:39;9.70;99.90
23149;DHT22;11743;51.228;22.498;2023-04-25T01:31:01;9.70;99.90
23149;DHT22;11743;51.228;22.498;2023-04-25T01:31:23;9.70;99.90
23149;DHT22;11743;51.228;22.498;2023-04-25T01:31:45;9.60;99.90
23149;DHT22;11743;51.228;22.498;2023-04-25T01:32:08;9.70;99.90
23149;DHT22;11743;51.228;22.498;2023-04-25T01:32:33;9.60;99.90
23149;DHT22;11743;51.228;22.498;2023-04-25T01:33:00;9.60;99.90
23149;DHT22;11743;51.228;22.498;2023-04-25T01:33:45;9.60;99.90
23149;DHT22;11743;51.228;22.498;2023-04-25T01:34:07;9.60;99.90
23149;DHT22;11743;51.228;22.498;2023-04-25T01:34:29;9.50;99.90
23149;DHT22;11743;51.228;22.498;2023-04-25T01:34:50;9.50;99.90
23149;DHT22;11743;51.228;22.498;2023-04-25T01:35:12;9.50;99.90
23149;DHT22;11743;51.228;22.498;2023-04-25T01:35:34;9.50;99.90
23149;DHT22;11743;51.228;22.498;2023-04-25T01:35:56;9.50;99.90
23149;DHT22;11743;51.228;22.498;2023-04-25T01:36:40;9.50;99.90
23149;DHT22;11743;51.228;22.498;2023-04-25T01:37:02;9.40;99.90
23149;DHT22;11743;51.228;22.498;2023-04-25T01:37:24;9.40;99.90
23149;DHT22;11743;51.228;22.498;2023-04-25T01:37:46;9.40;99.90
23149;DHT22;11743;51.228;22.498;2023-04-25T01:38:08;9.40;99.90
23149;DHT22;11743;51.228;22.498;2023-04-25T01:38:30;9.40;99.90
23149;DHT22;11743;51.228;22.498;2023-04-25T01:38:53;9.40;99.90
23149;DHT22;11743;51.228;22.498;2023-04-25T01:39:15;9.30;99.90
23149;DHT22;11743;51.228;22.498;2023-04-25T01:39:37;9.40;99.90
23149;DHT22;11743;51.228;22.498;2023-04-25T01:39:59;9.40;99.90
23149;DHT22;11743;51.228;22.498;2023-04-25T01:40:21;9.30;99.90
23149;DHT22;11743;51.228;22.498;2023-04-25T01:40:45;9.30;99.90
23149;DHT22;11743;51.228;22.498;2023-04-25T01:41:08;9.30;99.90
23149;DHT22;11743;51.228;22.498;2023-04-25T01:41:29;9.30;99.90
23149;DHT22;11743;51.228;22.498;2023-04-25T01:41:51;9.30;99.90
23149;DHT22;11743;51.228;22.498;2023-04-25T01:42:13;9.30;99.90
23149;DHT22;11743;51.228;22.498;2023-04-25T01:42:37;9.20;99.90
23149;DHT22;11743;51.228;22.498;2023-04-25T01:42:59;9.20;99.90
23149;DHT22;11743;51.228;22.498;2023-04-25T01:43:21;9.20;99.90
23149;DHT22;11743;51.228;22.498;2023-04-25T01:43:44;9.20;99.90
23149;DHT22;11743;51.228;22.498;2023-04-25T01:44:06;9.20;99.90
23149;DHT22;11743;51.228;22.498;2023-04-25T01:44:28;9.20;99.90
23149;DHT22;11743;51.228;22.498;2023-04-25T01:44:50;9.20;99.90
23149;DHT22;11743;51.228;22.498;2023-04-25T01:45:12;9.10;99.90
23149;DHT22;11743;51.228;22.498;2023-04-25T01:45:34;9.10;99.90
23149;DHT22;11743;51.228;22.498;2023-04-25T01:45:58;9.10;99.90
23149;DHT22;11743;51.228;22.498;2023-04-25T01:46:21;9.10;99.90
23149;DHT22;11743;51.228;22.498;2023-04-25T01:46:43;9.10;99.90
23149;DHT22;11743;51.228;22.498;2023-04-25T01:47:05;9.10;99.90
23149;DHT22;11743;51.228;22.498;2023-04-25T01:47:27;9.10;99.90
23149;DHT22;11743;51.228;22.498;2023-04-25T01:47:52;9.10;99.90
23149;DHT22;11743;51.228;22.498;2023-04-25T01:48:14;9.00;99.90
23149;DHT22;11743;51.228;22.498;2023-04-25T01:48:36;9.00;99.90
23149;DHT22;11743;51.228;22.498;2023-04-25T01:48:57;9.10;99.90
23149;DHT22;11743;51.228;22.498;2023-04-25T01:49:19;9.10;99.90
23149;DHT22;11743;51.228;22.498;2023-04-25T01:49:41;9.10;99.90
23149;DHT22;11743;51.228;22.498;2023-04-25T01:50:05;9.10;99.90
23149;DHT22;11743;51.228;22.498;2023-04-25T01:50:27;9.00;99.90
23149;DHT22;11743;51.228;22.498;2023-04-25T01:50:49;9.00;99.90
23149;DHT22;11743;51.228;22.498;2023-04-25T01:51:11;9.10;99.90
23149;DHT22;11743;51.228;22.498;2023-04-25T01:51:33;9.00;99.90
23149;DHT22;11743;51.228;22.498;2023-04-25T01:51:55;9.10;99.90
23149;DHT22;11743;51.228;22.498;2023-04-25T01:52:16;9.00;99.90
23149;DHT22;11743;51.228;22.498;2023-04-25T01:52:38;9.00;99.90
23149;DHT22;11743;51.228;22.498;2023-04-25T01:53:00;9.00;99.90
23149;DHT22;11743;51.228;22.498;2023-04-25T01:53:24;9.00;99.90
23149;DHT22;11743;51.228;22.498;2023-04-25T01:53:46;9.00;99.90
23149;DHT22;11743;51.228;22.498;2023-04-25T01:54:08;9.00;99.90
23149;DHT22;11743;51.228;22.498;2023-04-25T01:54:31;9.00;99.90
23149;DHT22;11743;51.228;22.498;2023-04-25T01:54:53;9.00;99.90
23149;DHT22;11743;51.228;22.498;2023-04-25T01:55:15;9.00;99.90
23149;DHT22;11743;51.228;22.498;2023-04-25T01:55:37;9.00;99.90
23149;DHT22;11743;51.228;22.498;2023-04-25T01:55:59;9.00;99.90
23149;DHT22;11743;51.228;22.498;2023-04-25T01:56:21;9.00;99.90
23149;DHT22;11743;51.228;22.498;2023-04-25T01:56:43;9.00;99.90
23149;DHT22;11743;51.228;22.498;2023-04-25T01:57:04;9.00;99.90
23149;DHT22;11743;51.228;22.498;2023-04-25T01:57:26;9.00;99.90
23149;DHT22;11743;51.228;22.498;2023-04-25T01:57:48;9.00;99.90
23149;DHT22;11743;51.228;22.498;2023-04-25T01:58:10;9.00;99.90
23149;DHT22;11743;51.228;22.498;2023-04-25T01:58:34;9.00;99.90
23149;DHT22;11743;51.228;22.498;2023-04-25T01:58:58;9.00;99.90
23149;DHT22;11743;51.228;22.498;2023-04-25T01:59:20;9.00;99.90
23149;DHT22;11743;51.228;22.498;2023-04-25T01:59:44;9.00;99.90
23149;DHT22;11743;51.228;22.498;2023-04-25T02:00:06;9.00;99.90
23149;DHT22;11743;51.228;22.498;2023-04-25T02:00:28;9.00;99.90
23149;DHT22;11743;51.228;22.498;2023-04-25T02:00:50;9.10;99.90
23149;DHT22;11743;51.228;22.498;2023-04-25T02:01:12;9.10;99.90
23149;DHT22;11743;51.228;22.498;2023-04-25T02:01:34;9.10;99.90
23149;DHT22;11743;51.228;22.498;2023-04-25T02:01:55;9.10;99.90
23149;DHT22;11743;51.228;22.498;2023-04-25T02:02:17;9.10;99.90
23149;DHT22;11743;51.228;22.498;2023-04-25T02:02:39;9.10;99.90
23149;DHT22;11743;51.228;22.498;2023-04-25T02:03:01;9.10;99.90
23149;DHT22;11743;51.228;22.498;2023-04-25T02:03:24;9.10;99.90
23149;DHT22;11743;51.228;22.498;2023-04-25T02:03:46;9.10;99.90
23149;DHT22;11743;51.228;22.498;2023-04-25T02:04:08;9.10;99.90
23149;DHT22;11743;51.228;22.498;2023-04-25T02:04:30;9.10;99.90
23149;DHT22;11743;51.228;22.498;2023-04-25T02:04:52;9.20;99.90
23149;DHT22;11743;51.228;22.498;2023-04-25T02:05:16;9.20;99.90
23149;DHT22;11743;51.228;22.498;2023-04-25T02:05:39;9.20;99.90
23149;DHT22;11743;51.228;22.498;2023-04-25T02:06:01;9.20;99.90
23149;DHT22;11743;51.228;22.498;2023-04-25T02:06:22;9.20;99.90
23149;DHT22;11743;51.228;22.498;2023-04-25T02:06:44;9.20;99.90
23149;DHT22;11743;51.228;22.498;2023-04-25T02:07:06;9.20;99.90
23149;DHT22;11743;51.228;22.498;2023-04-25T02:07:28;9.20;99.90
23149;DHT22;11743;51.228;22.498;2023-04-25T02:07:49;9.20;99.90
23149;DHT22;11743;51.228;22.498;2023-04-25T02:08:11;9.30;99.90
23149;DHT22;11743;51.228;22.498;2023-04-25T02:08:33;9.30;99.90
23149;DHT22;11743;51.228;22.498;2023-04-25T02:08:55;9.30;99.90
23149;DHT22;11743;51.228;22.498;2023-04-25T02:09:17;9.30;99.90
23149;DHT22;11743;51.228;22.498;2023-04-25T02:09:38;9.30;99.90
23149;DHT22;11743;51.228;22.498;2023-04-25T02:10:00;9.30;99.90
23149;DHT22;11743;51.228;22.498;2023-04-25T02:10:22;9.30;99.90
23149;DHT22;11743;51.228;22.498;2023-04-25T02:10:44;9.30;99.90
23149;DHT22;11743;51.228;22.498;2023-04-25T02:11:06;9.30;99.90
23149;DHT22;11743;51.228;22.498;2023-04-25T02:11:29;9.30;99.90
23149;DHT22;11743;51.228;22.498;2023-04-25T02:11:51;9.30;99.90
23149;DHT22;11743;51.228;22.498;2023-04-25T02:12:13;9.30;99.90
23149;DHT22;11743;51.228;22.498;2023-04-25T02:12:35;9.30;99.90
23149;DHT22;11743;51.228;22.498;2023-04-25T02:12:58;9.30;99.90
23149;DHT22;11743;51.228;22.498;2023-04-25T02:13:20;12.00;99.90
23149;DHT22;11743;51.228;22.498;2023-04-25T02:13:41;9.30;99.90
23149;DHT22;11743;51.228;22.498;2023-04-25T02:14:03;9.40;99.90
23149;DHT22;11743;51.228;22.498;2023-04-25T02:14:25;9.40;99.90
23149;DHT22;11743;51.228;22.498;2023-04-25T02:14:47;9.40;99.90
23149;DHT22;11743;51.228;22.498;2023-04-25T02:15:09;9.40;99.90
23149;DHT22;11743;51.228;22.498;2023-04-25T02:15:31;9.30;99.90
23149;DHT22;11743;51.228;22.498;2023-04-25T02:15:52;9.40;99.90
23149;DHT22;11743;51.228;22.498;2023-04-25T02:16:14;9.40;99.90
23149;DHT22;11743;51.228;22.498;2023-04-25T02:16:36;9.40;99.90
23149;DHT22;11743;51.228;22.498;2023-04-25T02:16:58;9.40;99.90
23149;DHT22;11743;51.228;22.498;2023-04-25T02:17:20;9.40;99.90
23149;DHT22;11743;51.228;22.498;2023-04-25T02:17:43;9.40;99.90
23149;DHT22;11743;51.228;22.498;2023-04-25T02:18:06;9.40;99.90
23149;DHT22;11743;51.228;22.498;2023-04-25T02:18:50;9.30;99.90
23149;DHT22;11743;51.228;22.498;2023-04-25T02:19:14;9.30;99.90
23149;DHT22;11743;51.228;22.498;2023-04-25T02:19:36;9.30;99.90
23149;DHT22;11743;51.228;22.498;2023-04-25T02:20:00;9.40;99.90
23149;DHT22;11743;51.228;22.498;2023-04-25T02:20:23;9.40;99.90
23149;DHT22;11743;51.228;22.498;2023-04-25T02:20:45;9.40;99.90
23149;DHT22;11743;51.228;22.498;2023-04-25T02:21:07;9.30;99.90
23149;DHT22;11743;51.228;22.498;2023-04-25T02:21:29;9.30;99.90
23149;DHT22;11743;51.228;22.498;2023-04-25T02:21:51;9.40;99.90
23149;DHT22;11743;51.228;22.498;2023-04-25T02:22:13;9.30;99.90
23149;DHT22;11743;51.228;22.498;2023-04-25T02:22:35;9.30;99.90